Time;durP1;ratioP1;P1;durP2;ratioP2;P2;SDS_P1;SDS_P2;PMS_P1;PMS_P2;Temp;Humidity;BMP_temperature;BMP_pressure;BME280_temperature;BME280_humidity;BME280_pressure;Samples;Min_cycle;Max_cycle;Signal;HPM_P1;HPM_P2
2021/09/18 00:00:19;;;;;;;;;;;7.90;99.90;;;;;;5075615;28;20369;-72
2021/09/18 00:02:45;;;;;;;;;;;7.80;99.90;;;;;;5080632;28;19908;-73
2021/09/18 00:05:10;;;;;;;;;;;7.80;99.90;;;;;;5078080;28;20015;-73
2021/09/18 00:07:36;;;;;;;;;;;7.70;99.90;;;;;;5076197;28;20305;-71
2021/09/18 00:10:02;;;;;;;;;;;7.70;99.90;;;;;;5083479;28;19909;-71
2021/09/18 00:12:28;;;;;;;;;;;7.80;99.90;;;;;;5077128;28;19912;-71
2021/09/18 00:14:53;;;;;;;;;;;7.70;99.90;;;;;;5075407;28;19915;-71
2021/09/18 00:17:19;;;;;;;;;;;7.60;99.90;;;;;;5084711;28;20023;-72
2021/09/18 00:19:45;;;;;;;;;;;7.60;99.90;;;;;;5074234;28;19959;-72
2021/09/18 00:22:11;;;;;;;;;;;7.60;99.90;;;;;;5093428;28;19914;-71
2021/09/18 00:24:36;;;;;;;;;;;7.60;99.90;;;;;;5074265;28;20385;-71
2021/09/18 00:27:04;;;;;;;;;;;7.60;99.90;;;;;;5085645;28;19922;-71
2021/09/18 00:29:29;;;;;;;;;;;7.60;99.90;;;;;;5073503;28;19913;-72
2021/09/18 00:31:55;;;;;;;;;;;7.60;99.90;;;;;;5082814;28;20274;-73
2021/09/18 00:34:21;;;;;;;;;;;7.60;99.90;;;;;;5072984;28;19912;-72
2021/09/18 00:36:46;;;;;;;;;;;7.60;99.90;;;;;;5081870;28;19954;-71
2021/09/18 00:39:12;;;;;;;;;;;7.60;99.90;;;;;;5072547;28;19914;-72
2021/09/18 00:41:37;;;;;;;;;;;7.50;99.90;;;;;;5081573;28;19961;-71
2021/09/18 00:44:03;;;;;;;;;;;7.60;99.90;;;;;;5073149;28;19908;-71
2021/09/18 00:46:28;;;;;;;;;;;7.40;99.90;;;;;;5071846;28;20354;-71
2021/09/18 00:48:54;;;;;;;;;;;7.40;99.90;;;;;;5097903;28;19908;-72
2021/09/18 00:51:19;;;;;;;;;;;7.50;99.90;;;;;;5074521;28;19912;-71
2021/09/18 00:53:45;;;;;;;;;;;7.40;99.90;;;;;;5079843;28;20011;-71
2021/09/18 00:56:11;;;;;;;;;;;7.40;99.90;;;;;;5075578;28;19954;-71
2021/09/18 00:58:37;;;;;;;;;;;7.40;99.90;;;;;;5072752;28;19908;-72
2021/09/18 01:01:03;;;;;;;;;;;7.30;99.90;;;;;;5082444;28;20394;-72
2021/09/18 01:03:28;;;;;;;;;;;7.20;99.90;;;;;;5080567;28;19912;-72
2021/09/18 01:05:55;;;;;;;;;;;7.20;99.90;;;;;;5074541;28;19935;-72
2021/09/18 01:08:22;;;;;;;;;;;7.20;99.90;;;;;;5087497;28;20042;-71
2021/09/18 01:10:48;;;;;;;;;;;7.10;99.90;;;;;;5079652;28;20331;-72
2021/09/18 01:13:17;;;;;;;;;;;7.10;99.90;;;;;;5080159;28;19962;-72
2021/09/18 01:15:43;;;;;;;;;;;7.10;99.90;;;;;;5072203;28;20345;-72
2021/09/18 01:18:09;;;;;;;;;;;7.20;99.90;;;;;;5079693;28;19908;-71
2021/09/18 01:20:36;;;;;;;;;;;7.20;99.90;;;;;;5072238;28;19991;-73
2021/09/18 01:23:02;;;;;;;;;;;7.20;99.90;;;;;;5080521;28;19914;-72
2021/09/18 01:25:29;;;;;;;;;;;7.10;99.90;;;;;;5078742;28;19912;-71
2021/09/18 01:27:54;;;;;;;;;;;7.10;99.90;;;;;;5078464;28;19915;-71
2021/09/18 01:30:22;;;;;;;;;;;7.10;99.90;;;;;;5082372;28;19908;-71
2021/09/18 01:32:48;;;;;;;;;;;7.10;99.90;;;;;;5071790;28;20269;-72
2021/09/18 01:35:13;;;;;;;;;;;7.00;99.90;;;;;;5086955;28;19909;-71
2021/09/18 01:37:39;;;;;;;;;;;7.00;99.90;;;;;;5074015;28;20003;-73
2021/09/18 01:40:05;;;;;;;;;;;7.00;99.90;;;;;;5089490;28;19934;-72
2021/09/18 01:42:31;;;;;;;;;;;7.00;99.90;;;;;;5080282;28;19909;-72
2021/09/18 01:44:56;;;;;;;;;;;7.10;99.90;;;;;;5071789;28;19970;-71
2021/09/18 01:47:22;;;;;;;;;;;7.00;99.90;;;;;;5082934;28;19970;-71
2021/09/18 01:49:47;;;;;;;;;;;7.00;99.90;;;;;;5079495;28;20369;-72
2021/09/18 01:52:34;;;;;;;;;;;7.10;99.90;;;;;;5073921;28;19915;-71
2021/09/18 01:55:00;;;;;;;;;;;7.10;99.90;;;;;;5079680;28;19908;-71
2021/09/18 01:57:25;;;;;;;;;;;7.00;99.90;;;;;;5076435;28;19908;-72
2021/09/18 01:59:51;;;;;;;;;;;6.90;99.90;;;;;;5078319;28;19912;-71
2021/09/18 02:02:16;;;;;;;;;;;6.80;99.90;;;;;;5077374;28;20008;-71
2021/09/18 02:04:42;;;;;;;;;;;6.80;99.90;;;;;;5077142;28;20388;-71
2021/09/18 02:07:07;;;;;;;;;;;6.70;99.90;;;;;;5073803;28;19908;-71
2021/09/18 02:09:33;;;;;;;;;;;6.80;99.90;;;;;;5076853;28;19916;-72
2021/09/18 02:11:58;;;;;;;;;;;6.80;99.90;;;;;;5071365;28;19909;-71
2021/09/18 02:14:24;;;;;;;;;;;6.80;99.90;;;;;;5078645;28;20011;-72
2021/09/18 02:16:49;;;;;;;;;;;6.80;99.90;;;;;;5082319;28;20266;-71
2021/09/18 02:19:14;;;;;;;;;;;6.80;99.90;;;;;;5075778;28;19936;-71
2021/09/18 02:21:40;;;;;;;;;;;6.80;99.90;;;;;;5090748;28;19916;-72
2021/09/18 02:24:05;;;;;;;;;;;6.80;99.90;;;;;;5090927;28;19962;-72
2021/09/18 02:26:31;;;;;;;;;;;6.80;99.90;;;;;;5090362;28;20452;-71
2021/09/18 02:28:56;;;;;;;;;;;6.80;99.90;;;;;;5090789;28;19989;-72
2021/09/18 02:31:22;;;;;;;;;;;6.70;99.90;;;;;;5087891;28;19908;-73
2021/09/18 02:33:47;;;;;;;;;;;6.70;99.90;;;;;;5073303;28;20396;-71
2021/09/18 02:36:13;;;;;;;;;;;6.70;99.90;;;;;;5075968;28;20380;-71
2021/09/18 02:38:38;;;;;;;;;;;6.60;99.90;;;;;;5079012;28;19912;-71
2021/09/18 02:41:04;;;;;;;;;;;6.70;99.90;;;;;;5078004;28;19912;-71
2021/09/18 02:43:29;;;;;;;;;;;6.70;99.90;;;;;;5077465;28;20356;-71
2021/09/18 02:45:55;;;;;;;;;;;6.60;99.90;;;;;;5075678;28;20014;-71
2021/09/18 02:48:20;;;;;;;;;;;6.60;99.90;;;;;;5081562;28;20003;-72
2021/09/18 02:50:46;;;;;;;;;;;6.60;99.90;;;;;;5088305;28;19908;-71
2021/09/18 02:53:12;;;;;;;;;;;6.60;99.90;;;;;;5099345;28;19960;-71
2021/09/18 02:55:37;;;;;;;;;;;6.80;99.90;;;;;;5075702;28;19916;-71
2021/09/18 02:58:03;;;;;;;;;;;6.80;99.90;;;;;;5070737;28;20250;-71
2021/09/18 03:00:28;;;;;;;;;;;6.80;99.90;;;;;;5078375;28;20011;-71
2021/09/18 03:02:54;;;;;;;;;;;6.80;99.90;;;;;;5088688;28;19909;-71
2021/09/18 03:05:19;;;;;;;;;;;6.70;99.90;;;;;;5090751;28;19948;-71
2021/09/18 03:07:45;;;;;;;;;;;6.60;99.90;;;;;;5072653;28;19909;-71
2021/09/18 03:10:11;;;;;;;;;;;6.60;99.90;;;;;;5070787;28;19916;-71
2021/09/18 03:12:36;;;;;;;;;;;6.70;99.90;;;;;;5070547;28;19908;-71
2021/09/18 03:15:03;;;;;;;;;;;6.80;99.90;;;;;;5071092;28;19909;-71
2021/09/18 03:17:29;;;;;;;;;;;6.80;99.90;;;;;;5071383;28;19909;-71
2021/09/18 03:19:56;;;;;;;;;;;6.80;99.90;;;;;;5075848;28;20009;-71
2021/09/18 03:22:21;;;;;;;;;;;6.90;99.90;;;;;;5074111;28;19908;-71
2021/09/18 03:24:47;;;;;;;;;;;7.00;99.90;;;;;;5071726;28;20373;-71
2021/09/18 03:27:14;;;;;;;;;;;6.90;99.90;;;;;;5072037;28;19966;-70
2021/09/18 03:29:40;;;;;;;;;;;6.90;99.90;;;;;;5085383;28;19916;-72
2021/09/18 03:32:05;;;;;;;;;;;6.80;99.90;;;;;;5081977;28;19908;-70
2021/09/18 03:34:31;;;;;;;;;;;6.70;99.90;;;;;;5075188;28;19937;-71
2021/09/18 03:36:56;;;;;;;;;;;6.70;99.90;;;;;;5075014;28;20003;-71
2021/09/18 03:39:21;;;;;;;;;;;6.60;99.90;;;;;;5076216;28;19915;-71
2021/09/18 03:41:47;;;;;;;;;;;6.50;99.90;;;;;;5074420;28;19919;-71
2021/09/18 03:44:12;;;;;;;;;;;6.50;99.90;;;;;;5074601;28;19952;-71
2021/09/18 03:46:38;;;;;;;;;;;6.40;99.90;;;;;;5073883;28;19927;-71
2021/09/18 03:49:04;;;;;;;;;;;6.30;99.90;;;;;;5074389;28;19908;-71
2021/09/18 03:51:29;;;;;;;;;;;6.30;99.90;;;;;;5074195;28;20384;-71
2021/09/18 03:53:55;;;;;;;;;;;6.30;99.90;;;;;;5074261;28;20411;-71
2021/09/18 03:56:20;;;;;;;;;;;6.30;99.90;;;;;;5073677;28;19948;-71
2021/09/18 03:58:46;;;;;;;;;;;6.30;99.90;;;;;;5079533;28;19954;-71
2021/09/18 04:01:11;;;;;;;;;;;6.40;99.90;;;;;;5084316;28;19913;-71
2021/09/18 04:03:36;;;;;;;;;;;6.40;99.90;;;;;;5077337;28;20014;-71
2021/09/18 04:06:02;;;;;;;;;;;6.40;99.90;;;;;;5073735;28;19919;-71
2021/09/18 04:08:27;;;;;;;;;;;6.40;99.90;;;;;;5073965;28;20369;-71
2021/09/18 04:10:53;;;;;;;;;;;6.50;99.90;;;;;;5073683;28;20003;-71
2021/09/18 04:13:19;;;;;;;;;;;6.50;99.90;;;;;;5074056;28;20313;-71
2021/09/18 04:15:45;;;;;;;;;;;6.40;99.90;;;;;;5073875;28;19908;-71
2021/09/18 04:18:10;;;;;;;;;;;6.40;99.90;;;;;;5073656;28;19915;-71
2021/09/18 04:20:36;;;;;;;;;;;6.30;99.90;;;;;;5073768;28;19935;-71
2021/09/18 04:23:01;;;;;;;;;;;6.40;99.90;;;;;;5073578;28;19908;-70
2021/09/18 04:25:27;;;;;;;;;;;6.20;99.90;;;;;;5073469;28;19920;-71
2021/09/18 04:27:52;;;;;;;;;;;6.30;99.90;;;;;;5073271;28;19920;-71
2021/09/18 04:30:18;;;;;;;;;;;6.20;99.90;;;;;;5081783;28;19908;-71
2021/09/18 04:32:43;;;;;;;;;;;6.20;99.90;;;;;;5073459;28;19923;-71
2021/09/18 04:35:09;;;;;;;;;;;6.30;99.90;;;;;;5073443;28;19918;-71
2021/09/18 04:37:34;;;;;;;;;;;6.20;99.90;;;;;;5073085;28;19912;-71
2021/09/18 04:40:00;;;;;;;;;;;6.20;99.90;;;;;;5073154;28;19913;-71
2021/09/18 04:42:25;;;;;;;;;;;6.20;99.90;;;;;;5073546;28;19909;-71
2021/09/18 04:44:51;;;;;;;;;;;6.20;99.90;;;;;;5073341;28;19909;-71
2021/09/18 04:47:16;;;;;;;;;;;6.20;99.90;;;;;;5072692;28;19916;-71
2021/09/18 04:49:42;;;;;;;;;;;6.10;99.90;;;;;;5073162;28;19916;-71
2021/09/18 04:52:07;;;;;;;;;;;6.10;99.90;;;;;;5072989;28;19915;-71
2021/09/18 04:54:33;;;;;;;;;;;6.20;99.90;;;;;;5072867;28;19909;-71
2021/09/18 04:56:58;;;;;;;;;;;6.20;99.90;;;;;;5072857;28;20423;-70
2021/09/18 04:59:24;;;;;;;;;;;6.20;99.90;;;;;;5082947;28;19915;-71
2021/09/18 05:01:49;;;;;;;;;;;6.00;99.90;;;;;;5082868;28;19908;-71
2021/09/18 05:04:15;;;;;;;;;;;6.00;99.90;;;;;;5072909;28;19909;-71
2021/09/18 05:06:40;;;;;;;;;;;6.10;99.90;;;;;;5072391;28;19909;-71
2021/09/18 05:09:06;;;;;;;;;;;6.00;99.90;;;;;;5072554;28;19908;-71
2021/09/18 05:11:31;;;;;;;;;;;6.00;99.90;;;;;;5072599;28;19955;-71
2021/09/18 05:14:00;;;;;;;;;;;6.00;99.90;;;;;;5072857;28;19916;-71
2021/09/18 05:16:25;;;;;;;;;;;6.00;99.90;;;;;;5072300;28;19909;-71
2021/09/18 05:18:51;;;;;;;;;;;5.90;99.90;;;;;;5072788;28;19916;-71
2021/09/18 05:21:16;;;;;;;;;;;5.90;99.90;;;;;;5072538;28;20320;-70
2021/09/18 05:23:42;;;;;;;;;;;5.90;99.90;;;;;;5072180;28;19915;-71
2021/09/18 05:26:07;;;;;;;;;;;6.00;99.90;;;;;;5072136;28;20174;-71
2021/09/18 05:28:33;;;;;;;;;;;6.10;99.90;;;;;;5076194;28;20285;-71
2021/09/18 05:30:58;;;;;;;;;;;6.10;99.90;;;;;;5082635;28;19912;-71
2021/09/18 05:33:24;;;;;;;;;;;6.10;99.90;;;;;;5077474;28;20285;-71
2021/09/18 05:35:49;;;;;;;;;;;6.10;99.90;;;;;;5072183;28;20367;-71
2021/09/18 05:38:15;;;;;;;;;;;6.10;99.90;;;;;;5071611;28;19915;-71
2021/09/18 05:40:42;;;;;;;;;;;6.30;99.90;;;;;;5071976;28;19912;-71
2021/09/18 05:43:08;;;;;;;;;;;6.30;99.90;;;;;;5072238;28;20003;-71
2021/09/18 05:45:33;;;;;;;;;;;6.30;99.90;;;;;;5072061;28;20349;-71
2021/09/18 05:48:01;;;;;;;;;;;6.40;99.90;;;;;;5071528;28;19961;-71
2021/09/18 05:50:27;;;;;;;;;;;6.40;99.90;;;;;;5071997;28;19909;-71
2021/09/18 05:52:53;;;;;;;;;;;6.50;99.90;;;;;;5071808;28;19954;-71
2021/09/18 05:55:18;;;;;;;;;;;6.50;99.90;;;;;;5071988;28;20258;-71
2021/09/18 05:57:44;;;;;;;;;;;6.50;99.90;;;;;;5071514;28;20273;-71
2021/09/18 06:00:09;;;;;;;;;;;6.70;99.90;;;;;;5082683;28;19916;-71
2021/09/18 06:02:35;;;;;;;;;;;6.90;99.90;;;;;;5071923;28;19954;-71
2021/09/18 06:05:01;;;;;;;;;;;6.80;99.90;;;;;;5071906;28;19913;-71
2021/09/18 06:07:26;;;;;;;;;;;6.90;99.90;;;;;;5071275;28;20285;-71
2021/09/18 06:09:52;;;;;;;;;;;7.00;99.90;;;;;;5071812;28;19915;-71
2021/09/18 06:12:17;;;;;;;;;;;7.30;99.90;;;;;;5071611;28;19915;-71
2021/09/18 06:14:43;;;;;;;;;;;7.50;99.90;;;;;;5071848;28;19948;-71
2021/09/18 06:17:08;;;;;;;;;;;7.50;99.90;;;;;;5071344;28;19916;-71
2021/09/18 06:19:34;;;;;;;;;;;7.40;99.90;;;;;;5071629;28;19908;-71
2021/09/18 06:21:59;;;;;;;;;;;7.50;99.90;;;;;;5071397;28;19913;-71
2021/09/18 06:24:25;;;;;;;;;;;7.50;99.90;;;;;;5071552;28;19908;-71
2021/09/18 06:26:50;;;;;;;;;;;7.60;99.90;;;;;;5071152;28;19969;-71
2021/09/18 06:29:15;;;;;;;;;;;7.70;99.90;;;;;;5080844;28;19999;-71
2021/09/18 06:31:41;;;;;;;;;;;7.80;99.90;;;;;;5082472;28;20115;-71
2021/09/18 06:34:06;;;;;;;;;;;7.90;99.90;;;;;;5071588;28;19931;-71
2021/09/18 06:36:32;;;;;;;;;;;8.00;99.90;;;;;;5070842;28;19913;-71
2021/09/18 06:38:58;;;;;;;;;;;8.10;99.90;;;;;;5071500;28;20357;-71
2021/09/18 06:41:23;;;;;;;;;;;8.20;99.90;;;;;;5071287;28;19942;-71
2021/09/18 06:43:49;;;;;;;;;;;8.30;99.90;;;;;;5071696;28;20365;-71
2021/09/18 06:46:15;;;;;;;;;;;8.40;99.90;;;;;;5070964;28;19923;-71
2021/09/18 06:48:41;;;;;;;;;;;8.40;99.90;;;;;;5071374;28;19954;-71
2021/09/18 06:51:06;;;;;;;;;;;8.60;99.90;;;;;;5071048;28;19995;-71
2021/09/18 06:53:32;;;;;;;;;;;8.70;99.90;;;;;;5073343;28;19992;-71
2021/09/18 06:55:57;;;;;;;;;;;8.90;99.90;;;;;;5075317;28;19978;-71
2021/09/18 06:58:23;;;;;;;;;;;9.10;99.90;;;;;;5077196;28;19909;-71
2021/09/18 07:00:48;;;;;;;;;;;9.10;99.90;;;;;;5085599;28;20423;-71
2021/09/18 07:03:14;;;;;;;;;;;9.20;99.90;;;;;;5082033;28;19912;-71
2021/09/18 07:05:39;;;;;;;;;;;9.40;99.90;;;;;;5074861;28;19966;-71
2021/09/18 07:08:05;;;;;;;;;;;9.50;99.90;;;;;;5074577;28;20003;-71
2021/09/18 07:10:30;;;;;;;;;;;9.70;99.90;;;;;;5074580;28;19915;-71
2021/09/18 07:12:58;;;;;;;;;;;9.80;99.90;;;;;;5074968;28;19954;-71
2021/09/18 07:15:23;;;;;;;;;;;9.90;99.90;;;;;;5074864;28;19913;-71
2021/09/18 07:17:49;;;;;;;;;;;10.00;99.90;;;;;;5074195;28;20356;-71
2021/09/18 07:20:15;;;;;;;;;;;10.20;99.90;;;;;;5074501;28;20404;-71
2021/09/18 07:22:41;;;;;;;;;;;10.30;99.90;;;;;;5074631;28;20277;-71
2021/09/18 07:25:07;;;;;;;;;;;10.50;99.90;;;;;;5074765;28;19931;-71
2021/09/18 07:27:33;;;;;;;;;;;10.70;99.90;;;;;;5074300;28;20381;-71
2021/09/18 07:29:58;;;;;;;;;;;10.90;99.90;;;;;;5084176;28;19999;-71
2021/09/18 07:32:24;;;;;;;;;;;11.10;99.90;;;;;;5074641;28;19909;-71
2021/09/18 07:34:50;;;;;;;;;;;11.30;99.90;;;;;;5074401;28;20007;-71
2021/09/18 07:37:16;;;;;;;;;;;11.40;99.90;;;;;;5073935;28;19908;-71
2021/09/18 07:39:41;;;;;;;;;;;11.70;99.90;;;;;;5087225;28;19912;-71
2021/09/18 07:42:07;;;;;;;;;;;11.90;99.90;;;;;;5093773;28;20133;-71
2021/09/18 07:44:32;;;;;;;;;;;13.40;99.90;;;;;;5093648;28;20272;-71
2021/09/18 07:46:58;;;;;;;;;;;15.60;99.90;;;;;;5092963;28;20392;-72
2021/09/18 07:49:23;;;;;;;;;;;17.00;99.90;;;;;;5093458;28;19919;-71
2021/09/18 07:51:49;;;;;;;;;;;18.20;99.90;;;;;;5093419;28;20337;-72
2021/09/18 07:54:14;;;;;;;;;;;18.80;99.90;;;;;;5093596;28;19908;-72
2021/09/18 07:56:40;;;;;;;;;;;19.10;99.90;;;;;;5093154;28;20418;-72
2021/09/18 07:59:05;;;;;;;;;;;19.70;99.90;;;;;;5093439;28;20000;-72
2021/09/18 08:01:32;;;;;;;;;;;20.40;99.90;;;;;;5082234;28;19919;-72
2021/09/18 08:04:02;;;;;;;;;;;20.30;99.90;;;;;;5072929;28;20401;-72
2021/09/18 08:06:31;;;;;;;;;;;20.60;99.90;;;;;;5073127;28;19912;-72
2021/09/18 08:08:56;;;;;;;;;;;20.60;99.90;;;;;;5074052;28;19931;-72
2021/09/18 08:11:23;;;;;;;;;;;20.80;99.90;;;;;;5073842;28;20354;-71
2021/09/18 08:13:49;;;;;;;;;;;20.90;99.90;;;;;;5073861;28;20331;-72
2021/09/18 08:16:15;;;;;;;;;;;20.70;99.90;;;;;;5073376;28;19908;-72
2021/09/18 08:18:40;;;;;;;;;;;20.90;99.90;;;;;;5073609;28;20262;-72
2021/09/18 08:21:06;;;;;;;;;;;21.20;99.90;;;;;;5073576;28;20057;-72
2021/09/18 08:23:31;;;;;;;;;;;22.30;99.90;;;;;;5090135;28;20360;-72
2021/09/18 08:25:57;;;;;;;;;;;22.60;99.90;;;;;;5092930;28;19915;-72
2021/09/18 08:28:22;;;;;;;;;;;22.90;99.90;;;;;;5092572;28;19912;-70
2021/09/18 08:30:47;;;;;;;;;;;23.40;99.90;;;;;;5084174;28;19919;-70
2021/09/18 08:33:13;;;;;;;;;;;22.30;99.90;;;;;;5080411;28;19908;-70
2021/09/18 08:35:38;;;;;;;;;;;22.30;99.90;;;;;;5073556;28;19934;-70
2021/09/18 08:38:04;;;;;;;;;;;22.90;99.90;;;;;;5073244;28;19970;-70
2021/09/18 08:40:33;;;;;;;;;;;23.60;99.90;;;;;;5073127;28;19916;-73
2021/09/18 08:42:59;;;;;;;;;;;24.10;99.90;;;;;;5073175;28;19915;-73
2021/09/18 08:45:24;;;;;;;;;;;24.50;99.90;;;;;;5073171;28;20285;-73
2021/09/18 08:47:50;;;;;;;;;;;23.80;99.50;;;;;;5072647;28;19971;-73
2021/09/18 08:50:16;;;;;;;;;;;23.80;99.90;;;;;;5073010;28;20002;-73
2021/09/18 08:52:42;;;;;;;;;;;24.40;99.50;;;;;;5073031;28;19915;-73
2021/09/18 08:55:08;;;;;;;;;;;24.00;96.80;;;;;;5055148;28;19908;-73
2021/09/18 08:57:33;;;;;;;;;;;25.10;97.80;;;;;;5072483;28;19913;-71
2021/09/18 08:59:59;;;;;;;;;;;25.80;95.30;;;;;;5082480;28;20027;-71
2021/09/18 09:02:27;;;;;;;;;;;25.00;97.30;;;;;;5073229;28;19909;-71
2021/09/18 09:05:07;;;;;;;;;;;25.70;96.60;;;;;;5072835;28;19908;-72
2021/09/18 09:07:32;;;;;;;;;;;25.70;97.00;;;;;;5072195;28;19909;-71
2021/09/18 09:09:59;;;;;;;;;;;25.40;93.70;;;;;;5072507;28;19908;-71
2021/09/18 09:12:35;;;;;;;;;;;25.90;94.30;;;;;;5072433;28;19915;-71
2021/09/18 09:15:04;;;;;;;;;;;26.20;94.40;;;;;;5072382;28;20267;-71
2021/09/18 09:17:30;;;;;;;;;;;26.50;93.50;;;;;;5071762;28;19913;-71
2021/09/18 09:19:57;;;;;;;;;;;27.40;93.90;;;;;;5072346;28;19913;-71
2021/09/18 09:22:42;;;;;;;;;;;27.30;92.80;;;;;;5072329;28;19991;-71
2021/09/18 09:25:26;;;;;;;;;;;26.80;92.60;;;;;;5072275;28;19909;-71
2021/09/18 09:27:52;;;;;;;;;;;26.40;92.40;;;;;;5086043;28;19908;-71
2021/09/18 09:30:35;;;;;;;;;;;27.40;91.70;;;;;;5088271;28;19915;-71
2021/09/18 09:33:07;;;;;;;;;;;27.50;91.20;;;;;;5074719;28;19909;-71
2021/09/18 09:35:33;;;;;;;;;;;27.10;90.30;;;;;;5072138;28;19909;-72
2021/09/18 09:37:58;;;;;;;;;;;27.70;91.30;;;;;;5072233;28;19927;-71
2021/09/18 09:40:38;;;;;;;;;;;28.10;90.00;;;;;;5072498;28;20296;-71
2021/09/18 09:43:05;;;;;;;;;;;27.80;91.00;;;;;;5071895;28;19909;-71
2021/09/18 09:45:31;;;;;;;;;;;28.60;89.10;;;;;;5070111;28;19912;-72
2021/09/18 09:48:04;;;;;;;;;;;28.80;89.60;;;;;;5068365;28;19912;-71
2021/09/18 09:50:30;;;;;;;;;;;28.40;88.20;;;;;;5069170;28;19909;-71
2021/09/18 09:52:56;;;;;;;;;;;28.80;89.20;;;;;;5068732;28;19908;-71
2021/09/18 09:55:23;;;;;;;;;;;28.80;84.60;;;;;;5068513;28;20370;-71
2021/09/18 09:58:05;;;;;;;;;;;28.40;83.90;;;;;;5069044;28;20269;-71
2021/09/18 10:00:36;;;;;;;;;;;28.40;83.40;;;;;;5081879;28;20389;-71
2021/09/18 10:03:02;;;;;;;;;;;27.20;79.50;;;;;;5079831;28;19912;-71
2021/09/18 10:05:27;;;;;;;;;;;26.80;83.10;;;;;;5071715;28;20412;-71
2021/09/18 10:07:53;;;;;;;;;;;27.40;83.60;;;;;;5071290;28;19909;-71
2021/09/18 10:10:18;;;;;;;;;;;27.90;82.50;;;;;;5072094;28;20265;-71
2021/09/18 10:12:44;;;;;;;;;;;29.70;81.00;;;;;;5071521;28;19915;-71
2021/09/18 10:15:10;;;;;;;;;;;28.80;78.30;;;;;;5071444;28;19919;-71
2021/09/18 10:17:40;;;;;;;;;;;29.00;76.50;;;;;;5071085;28;19916;-71
2021/09/18 10:23:13;;;;;;;;;;;29.40;74.40;;;;;;5084706;28;19981;-71
2021/09/18 10:23:18;;;;;;;;;;;29.60;72.00;;;;;;5071364;28;19916;-71
2021/09/18 10:25:47;;;;;;;;;;;29.00;74.20;;;;;;5071274;28;19991;-71
2021/09/18 10:28:12;;;;;;;;;;;29.30;76.90;;;;;;5071146;28;19909;-71
2021/09/18 10:30:40;;;;;;;;;;;29.90;73.70;;;;;;5080144;28;19916;-71
2021/09/18 10:33:06;;;;;;;;;;;30.20;74.60;;;;;;5071443;28;19908;-71
2021/09/18 10:35:32;;;;;;;;;;;29.20;77.20;;;;;;5071289;28;20184;-71
2021/09/18 10:37:58;;;;;;;;;;;28.70;73.10;;;;;;5071102;28;19919;-71
2021/09/18 10:40:23;;;;;;;;;;;27.20;75.20;;;;;;5071109;28;19948;-71
2021/09/18 10:42:50;;;;;;;;;;;27.70;71.20;;;;;;5071262;28;20438;-71
2021/09/18 10:45:17;;;;;;;;;;;29.10;69.30;;;;;;5071327;28;19922;-71
2021/09/18 10:47:48;;;;;;;;;;;28.30;70.50;;;;;;5070756;28;19962;-71
2021/09/18 10:50:16;;;;;;;;;;;27.70;65.90;;;;;;5071211;28;19909;-71
2021/09/18 10:52:42;;;;;;;;;;;26.80;72.90;;;;;;5071154;28;20222;-71
2021/09/18 10:55:08;;;;;;;;;;;25.10;80.80;;;;;;5071204;28;20380;-71
2021/09/18 10:57:37;;;;;;;;;;;25.10;77.50;;;;;;5070771;28;20334;-71
2021/09/18 11:00:26;;;;;;;;;;;25.90;71.00;;;;;;5090104;28;20384;-71
2021/09/18 11:02:51;;;;;;;;;;;27.60;71.90;;;;;;5064692;28;20369;-71
2021/09/18 11:05:23;;;;;;;;;;;29.40;71.50;;;;;;5070819;28;19961;-71
2021/09/18 11:07:49;;;;;;;;;;;30.40;67.40;;;;;;5070766;28;19916;-71
2021/09/18 11:10:21;;;;;;;;;;;30.50;68.50;;;;;;5071112;28;19915;-71
2021/09/18 11:13:05;;;;;;;;;;;31.50;62.30;;;;;;5070994;28;19915;-71
2021/09/18 11:15:38;;;;;;;;;;;31.00;64.10;;;;;;5070967;28;20059;-71
2021/09/18 11:18:27;;;;;;;;;;;31.10;65.30;;;;;;5070592;28;19908;-71
2021/09/18 11:20:58;;;;;;;;;;;30.80;62.80;;;;;;5077268;28;19918;-71
2021/09/18 11:23:42;;;;;;;;;;;29.40;63.70;;;;;;5090346;28;20291;-71
2021/09/18 11:26:26;;;;;;;;;;;30.50;64.90;;;;;;5089825;28;19912;-71
2021/09/18 11:28:52;;;;;;;;;;;31.60;61.90;;;;;;5090074;28;19908;-71
2021/09/18 11:31:17;;;;;;;;;;;32.40;61.40;;;;;;5094546;28;19908;-71
2021/09/18 11:33:47;;;;;;;;;;;32.00;59.60;;;;;;5074263;28;19916;-71
2021/09/18 11:36:13;;;;;;;;;;;31.20;62.30;;;;;;5083445;28;19909;-71
2021/09/18 11:38:38;;;;;;;;;;;32.30;60.00;;;;;;5090808;28;20284;-71
2021/09/18 11:41:05;;;;;;;;;;;32.20;58.10;;;;;;5093746;28;19912;-71
2021/09/18 11:43:31;;;;;;;;;;;30.80;58.90;;;;;;5093624;28;19908;-71
2021/09/18 11:45:58;;;;;;;;;;;30.40;57.90;;;;;;5074478;28;19920;-71
2021/09/18 11:48:25;;;;;;;;;;;30.80;56.80;;;;;;5083940;28;20357;-71
2021/09/18 11:50:51;;;;;;;;;;;30.00;60.80;;;;;;5089343;28;20002;-71
2021/09/18 11:53:17;;;;;;;;;;;29.90;59.20;;;;;;5086451;28;19996;-72
2021/09/18 11:55:43;;;;;;;;;;;25.50;70.50;;;;;;5089790;28;20270;-72
2021/09/18 11:58:14;;;;;;;;;;;22.80;74.10;;;;;;5089635;28;19962;-72
2021/09/18 12:00:44;;;;;;;;;;;21.60;78.80;;;;;;5089175;28;19916;-72
2021/09/18 12:03:10;;;;;;;;;;;20.90;79.90;;;;;;5088885;28;19912;-72
2021/09/18 12:05:35;;;;;;;;;;;20.40;80.20;;;;;;5090468;28;20254;-72
2021/09/18 12:08:02;;;;;;;;;;;20.60;86.20;;;;;;5087642;28;19908;-71
2021/09/18 12:10:28;;;;;;;;;;;20.30;81.90;;;;;;5088233;28;19916;-72
2021/09/18 12:12:55;;;;;;;;;;;20.20;87.30;;;;;;5088546;28;19908;-72
2021/09/18 12:15:30;;;;;;;;;;;20.50;82.20;;;;;;5087923;28;19908;-72
2021/09/18 12:17:56;;;;;;;;;;;20.40;84.90;;;;;;5088589;28;19947;-72
2021/09/18 12:20:21;;;;;;;;;;;20.10;87.80;;;;;;5088893;28;19963;-71
2021/09/18 12:22:47;;;;;;;;;;;19.80;87.50;;;;;;5089432;28;19908;-72
2021/09/18 12:25:12;;;;;;;;;;;19.90;89.90;;;;;;5089479;28;19961;-72
2021/09/18 12:27:38;;;;;;;;;;;20.10;88.00;;;;;;5083335;28;19909;-72
2021/09/18 12:30:08;;;;;;;;;;;19.90;87.60;;;;;;5086910;28;19955;-72
2021/09/18 12:32:33;;;;;;;;;;;19.90;87.10;;;;;;5076733;28;19915;-73
2021/09/18 12:35:03;;;;;;;;;;;19.80;86.50;;;;;;5073151;28;19995;-73
2021/09/18 12:37:30;;;;;;;;;;;19.60;87.60;;;;;;5072837;28;19908;-73
2021/09/18 12:40:07;;;;;;;;;;;19.30;88.50;;;;;;5073183;28;19966;-73
2021/09/18 12:42:32;;;;;;;;;;;19.40;88.20;;;;;;5055045;28;19962;-73
2021/09/18 12:44:58;;;;;;;;;;;19.60;89.10;;;;;;5073075;28;19908;-73
2021/09/18 12:47:23;;;;;;;;;;;19.40;86.50;;;;;;5072398;28;19916;-73
2021/09/18 12:49:49;;;;;;;;;;;19.40;87.70;;;;;;5079280;28;19921;-72
2021/09/18 12:52:14;;;;;;;;;;;19.30;87.70;;;;;;5072409;28;19908;-73
2021/09/18 12:54:41;;;;;;;;;;;19.20;85.50;;;;;;5072913;28;20466;-72
2021/09/18 12:57:06;;;;;;;;;;;19.20;90.00;;;;;;5072525;28;19999;-72
2021/09/18 12:59:42;;;;;;;;;;;19.30;87.90;;;;;;5079003;28;20003;-73
2021/09/18 13:02:07;;;;;;;;;;;19.50;88.70;;;;;;5081465;28;19916;-73
2021/09/18 13:04:34;;;;;;;;;;;19.40;86.90;;;;;;5092286;28;20346;-72
2021/09/18 13:07:02;;;;;;;;;;;19.60;87.10;;;;;;5091641;28;19916;-73
2021/09/18 13:09:35;;;;;;;;;;;19.40;85.20;;;;;;5092320;28;20113;-72
2021/09/18 13:12:06;;;;;;;;;;;19.30;87.80;;;;;;5091814;28;19995;-73
2021/09/18 13:14:33;;;;;;;;;;;19.20;89.30;;;;;;5091983;28;20007;-72
2021/09/18 13:17:01;;;;;;;;;;;19.30;88.50;;;;;;5091461;28;19915;-72
2021/09/18 13:19:43;;;;;;;;;;;19.10;87.70;;;;;;5091846;28;19908;-72
2021/09/18 13:22:09;;;;;;;;;;;19.40;89.80;;;;;;5091734;28;19912;-73
2021/09/18 13:24:34;;;;;;;;;;;19.50;87.80;;;;;;5091750;28;19957;-73
2021/09/18 13:27:00;;;;;;;;;;;19.40;87.60;;;;;;5091140;28;19916;-72
2021/09/18 13:29:25;;;;;;;;;;;19.30;87.50;;;;;;5089354;28;19977;-72
2021/09/18 13:31:51;;;;;;;;;;;19.30;89.20;;;;;;5074938;28;19951;-73
2021/09/18 13:34:16;;;;;;;;;;;19.20;88.60;;;;;;5072093;28;19913;-72
2021/09/18 13:36:42;;;;;;;;;;;19.30;86.80;;;;;;5071772;28;19931;-73
2021/09/18 13:39:07;;;;;;;;;;;19.30;90.10;;;;;;5072140;28;19909;-72
2021/09/18 13:41:33;;;;;;;;;;;19.40;89.80;;;;;;5071515;28;20432;-73
2021/09/18 13:43:59;;;;;;;;;;;19.30;89.90;;;;;;5054077;28;19958;-73
2021/09/18 13:46:25;;;;;;;;;;;19.30;91.00;;;;;;5071558;28;19951;-73
2021/09/18 13:48:50;;;;;;;;;;;19.30;89.00;;;;;;5071985;28;19912;-73
2021/09/18 13:51:16;;;;;;;;;;;19.40;88.50;;;;;;5072046;28;19916;-73
2021/09/18 13:53:41;;;;;;;;;;;19.30;86.20;;;;;;5071794;28;20395;-72
2021/09/18 13:56:07;;;;;;;;;;;19.30;87.20;;;;;;5071620;28;19909;-73
2021/09/18 13:58:33;;;;;;;;;;;19.40;89.10;;;;;;5075571;28;19908;-72
2021/09/18 14:00:58;;;;;;;;;;;19.50;88.00;;;;;;5091326;28;19912;-73
2021/09/18 14:03:24;;;;;;;;;;;19.40;86.50;;;;;;5072072;28;19908;-73
2021/09/18 14:05:50;;;;;;;;;;;19.30;86.10;;;;;;5071581;28;19965;-73
2021/09/18 14:08:15;;;;;;;;;;;19.40;85.80;;;;;;5071439;28;19915;-74
2021/09/18 14:10:41;;;;;;;;;;;19.40;85.50;;;;;;5071659;28;19908;-73
2021/09/18 14:13:06;;;;;;;;;;;19.30;87.00;;;;;;5082395;28;20300;-73
2021/09/18 14:15:32;;;;;;;;;;;19.40;88.00;;;;;;5079254;28;19909;-72
2021/09/18 14:17:57;;;;;;;;;;;19.40;89.50;;;;;;5071209;28;20465;-73
2021/09/18 14:20:23;;;;;;;;;;;19.50;90.10;;;;;;5071572;28;19935;-72